Time;durP1;ratioP1;P1;durP2;ratioP2;P2;SDS_P1;SDS_P2;PMS_P1;PMS_P2;Temp;Humidity;BMP_temperature;BMP_pressure;BME280_temperature;BME280_humidity;BME280_pressure;Samples;Min_cycle;Max_cycle;Signal;HPM_P1;HPM_P2
2022/03/10 00:01:57;;;;;;;21.53;11.40;;;6.10;99.90;;;;;;5043640;28;20185;-74
2022/03/10 00:04:22;;;;;;;23.30;11.97;;;6.10;99.90;;;;;;5065290;28;20560;-74
2022/03/10 00:06:48;;;;;;;20.37;12.37;;;6.10;99.90;;;;;;5064215;28;20213;-75
2022/03/10 00:09:13;;;;;;;22.27;11.73;;;6.00;99.90;;;;;;5064050;28;20294;-74
2022/03/10 00:11:40;;;;;;;25.13;13.43;;;6.10;99.90;;;;;;5065278;28;20286;-73
2022/03/10 00:14:05;;;;;;;25.50;12.77;;;6.00;99.90;;;;;;5064360;28;20198;-73
2022/03/10 00:16:31;;;;;;;24.63;13.27;;;6.00;99.90;;;;;;5048094;28;20209;-73
2022/03/10 00:18:56;;;;;;;21.97;11.87;;;5.90;99.90;;;;;;5045450;28;20261;-74
2022/03/10 00:21:22;;;;;;;22.17;12.17;;;5.90;99.90;;;;;;5063894;28;20229;-73
2022/03/10 00:23:47;;;;;;;26.93;13.40;;;5.80;99.90;;;;;;5072611;28;20227;-73
2022/03/10 00:26:13;;;;;;;23.10;13.20;;;5.90;99.90;;;;;;5073227;28;20200;-73
2022/03/10 00:28:38;;;;;;;25.23;14.30;;;5.90;99.90;;;;;;5071631;28;20214;-72
2022/03/10 00:31:04;;;;;;;24.13;14.50;;;5.80;99.90;;;;;;5071271;28;20233;-73
2022/03/10 00:33:29;;;;;;;27.20;13.87;;;5.80;99.90;;;;;;5054413;28;20206;-74
2022/03/10 00:35:55;;;;;;;28.50;13.63;;;5.80;99.90;;;;;;5072604;28;20217;-73
2022/03/10 00:38:20;;;;;;;26.23;14.63;;;5.70;99.90;;;;;;5071616;28;20220;-75
2022/03/10 00:40:46;;;;;;;24.17;13.97;;;5.70;99.90;;;;;;5067140;28;20592;-73
2022/03/10 00:43:12;;;;;;;30.20;15.50;;;5.70;99.90;;;;;;5074149;28;20205;-73
2022/03/10 00:45:38;;;;;;;26.07;14.70;;;5.70;99.90;;;;;;5073103;28;20714;-72
2022/03/10 00:48:04;;;;;;;29.63;16.17;;;5.60;99.90;;;;;;5071574;28;20214;-73
2022/03/10 00:50:29;;;;;;;30.27;16.23;;;5.50;99.90;;;;;;5072720;28;20239;-73
2022/03/10 00:52:55;;;;;;;28.03;15.83;;;5.60;99.90;;;;;;5073372;28;20180;-74
2022/03/10 00:55:21;;;;;;;28.33;16.03;;;5.70;99.90;;;;;;5080880;28;20207;-74
2022/03/10 00:57:47;;;;;;;29.73;16.23;;;5.60;99.90;;;;;;5063701;28;20301;-73
2022/03/10 01:00:14;;;;;;;27.23;15.50;;;5.60;99.90;;;;;;5072019;28;20239;-73
2022/03/10 01:02:39;;;;;;;25.03;15.77;;;5.50;99.90;;;;;;5054562;28;20224;-73
2022/03/10 01:05:06;;;;;;;28.27;15.87;;;5.40;99.90;;;;;;5060849;28;20176;-73
2022/03/10 01:07:32;;;;;;;29.47;16.10;;;5.30;99.90;;;;;;5056060;28;20819;-73
2022/03/10 01:09:57;;;;;;;31.60;16.27;;;5.30;99.90;;;;;;5058577;28;20208;-73
2022/03/10 01:12:23;;;;;;;27.53;16.33;;;5.30;99.90;;;;;;5075165;28;20208;-73
2022/03/10 01:14:48;;;;;;;29.10;17.10;;;5.30;99.90;;;;;;5053779;28;20215;-74
2022/03/10 01:17:14;;;;;;;30.77;15.50;;;5.30;99.90;;;;;;5072356;28;20209;-73
2022/03/10 01:19:39;;;;;;;28.93;16.40;;;5.30;99.90;;;;;;5070892;28;20224;-73
2022/03/10 01:22:06;;;;;;;29.03;15.03;;;5.40;99.90;;;;;;5053885;28;20198;-73
2022/03/10 01:24:32;;;;;;;31.07;15.43;;;5.50;99.90;;;;;;5071026;28;20230;-73
2022/03/10 01:26:57;;;;;;;25.37;14.53;;;5.40;99.90;;;;;;5079931;28;20702;-73
2022/03/10 01:29:23;;;;;;;29.57;15.70;;;5.40;99.90;;;;;;5070766;28;20231;-73
2022/03/10 01:31:48;;;;;;;32.63;15.60;;;5.30;99.90;;;;;;5072422;28;20178;-73
2022/03/10 01:34:14;;;;;;;28.37;14.47;;;5.30;99.90;;;;;;5071607;28;20232;-73
2022/03/10 01:36:40;;;;;;;29.17;15.70;;;5.20;99.90;;;;;;5053320;28;20213;-73
2022/03/10 01:39:06;;;;;;;26.50;14.70;;;5.20;99.90;;;;;;5070519;28;20224;-73
2022/03/10 01:41:32;;;;;;;26.80;14.17;;;5.20;99.90;;;;;;5053251;28;20214;-73
2022/03/10 01:44:01;;;;;;;25.83;14.97;;;5.10;99.90;;;;;;5071672;28;20177;-73
2022/03/10 01:46:27;;;;;;;26.23;15.03;;;5.20;99.90;;;;;;5053046;28;20217;-73
2022/03/10 01:48:54;;;;;;;26.10;13.90;;;5.10;99.90;;;;;;5071363;28;20762;-73
2022/03/10 01:51:21;;;;;;;26.07;14.47;;;5.10;99.90;;;;;;5053521;28;20570;-73
2022/03/10 01:53:48;;;;;;;27.50;14.70;;;5.20;99.90;;;;;;5063046;28;20207;-73
2022/03/10 01:56:15;;;;;;;28.10;14.57;;;5.10;99.90;;;;;;5053177;28;20196;-72
2022/03/10 01:58:41;;;;;;;25.10;13.47;;;5.10;99.90;;;;;;5070405;28;20218;-73
2022/03/10 02:01:09;;;;;;;23.67;14.87;;;5.00;99.90;;;;;;5071111;28;20324;-73
2022/03/10 02:03:35;;;;;;;25.90;14.23;;;5.00;99.90;;;;;;5070779;28;20212;-72
2022/03/10 02:06:00;;;;;;;24.83;14.23;;;5.00;99.90;;;;;;5070853;28;20209;-72
2022/03/10 02:11:12;;;;;;;29.30;16.10;;;4.90;99.90;;;;;;5079798;28;20723;-72
2022/03/10 02:13:37;;;;;;;24.00;13.93;;;4.90;99.90;;;;;;5070750;28;20208;-72
2022/03/10 02:18:47;;;;;;;27.20;14.97;;;4.90;99.90;;;;;;5062110;28;20206;-73
2022/03/10 02:21:14;;;;;;;29.57;16.50;;;4.90;99.90;;;;;;5070506;28;20211;-72
2022/03/10 02:23:39;;;;;;;31.17;16.47;;;4.90;99.90;;;;;;5052568;28;20215;-73
2022/03/10 02:26:06;;;;;;;29.60;15.57;;;4.90;99.90;;;;;;5071225;28;20212;-73
2022/03/10 02:28:33;;;;;;;28.07;14.27;;;4.80;99.90;;;;;;5069770;28;20230;-73
2022/03/10 02:30:58;;;;;;;26.50;15.83;;;4.90;99.90;;;;;;5052743;28;20208;-73
2022/03/10 02:33:24;;;;;;;29.97;17.07;;;4.80;99.90;;;;;;5070611;28;20220;-72
2022/03/10 02:35:50;;;;;;;28.27;15.93;;;4.70;99.90;;;;;;5070631;28;20215;-72
2022/03/10 02:38:19;;;;;;;30.87;16.93;;;4.70;99.90;;;;;;5069906;28;20171;-71
2022/03/10 02:40:47;;;;;;;32.83;16.20;;;4.60;99.90;;;;;;5052708;28;20250;-73
2022/03/10 02:43:12;;;;;;;32.37;16.27;;;4.60;99.90;;;;;;5070190;28;20198;-73
2022/03/10 02:45:38;;;;;;;30.10;16.00;;;4.70;99.90;;;;;;5070516;28;20241;-73
2022/03/10 02:48:04;;;;;;;32.47;16.07;;;4.60;99.90;;;;;;5069270;28;20231;-73
2022/03/10 02:50:30;;;;;;;31.87;15.87;;;4.60;99.90;;;;;;5070204;28;20186;-73
2022/03/10 02:52:55;;;;;;;32.23;15.77;;;4.60;99.90;;;;;;5070787;28;20263;-73
2022/03/10 02:55:21;;;;;;;30.77;15.93;;;4.70;99.90;;;;;;5069978;28;20222;-72
2022/03/10 02:57:47;;;;;;;29.37;16.20;;;4.60;99.90;;;;;;5069900;28;20284;-72
2022/03/10 03:00:16;;;;;;;28.00;16.40;;;4.60;99.90;;;;;;5051824;28;20209;-72
2022/03/10 03:02:42;;;;;;;30.40;16.03;;;4.60;99.90;;;;;;5070375;28;20258;-75
2022/03/10 03:05:12;;;;;;;29.23;15.83;;;4.70;99.90;;;;;;5070657;28;20176;-73
2022/03/10 03:07:38;;;;;;;29.80;16.83;;;4.60;99.90;;;;;;5060290;28;20226;-72
2022/03/10 03:10:05;;;;;;;31.77;17.03;;;4.40;99.90;;;;;;5069915;28;20199;-73
2022/03/10 03:12:32;;;;;;;29.83;15.93;;;4.40;99.90;;;;;;5070257;28;20199;-71
2022/03/10 03:14:57;;;;;;;31.80;16.23;;;4.30;99.90;;;;;;5052255;28;20208;-72
2022/03/10 03:17:24;;;;;;;32.43;17.13;;;4.30;99.90;;;;;;5051680;28;20679;-72
2022/03/10 03:19:50;;;;;;;30.53;16.43;;;4.30;99.90;;;;;;5069758;28;20574;-72
2022/03/10 03:22:16;;;;;;;32.13;16.90;;;4.30;99.90;;;;;;5051908;28;20217;-72
2022/03/10 03:24:42;;;;;;;27.73;15.83;;;4.30;99.90;;;;;;5069959;28;20282;-72
2022/03/10 03:27:08;;;;;;;34.70;17.97;;;4.30;99.90;;;;;;5069864;28;20576;-72
2022/03/10 03:29:33;;;;;;;31.53;17.17;;;4.20;99.90;;;;;;5069038;28;20191;-72
2022/03/10 03:31:59;;;;;;;29.67;16.23;;;4.20;99.90;;;;;;5070556;28;20176;-72
2022/03/10 03:34:25;;;;;;;33.70;16.90;;;4.20;99.90;;;;;;5051705;28;20260;-72
2022/03/10 03:36:50;;;;;;;32.03;17.67;;;4.20;99.90;;;;;;5069788;28;20233;-72
2022/03/10 03:39:16;;;;;;;31.00;16.20;;;4.10;99.90;;;;;;5050921;28;20242;-73
2022/03/10 03:41:42;;;;;;;34.90;17.03;;;4.20;99.90;;;;;;5051390;28;20215;-72
2022/03/10 03:44:10;;;;;;;32.40;18.10;;;4.10;99.90;;;;;;5063830;28;20206;-72
2022/03/10 03:46:36;;;;;;;35.40;17.97;;;4.10;99.90;;;;;;5051540;28;20629;-72
2022/03/10 03:49:02;;;;;;;33.47;17.53;;;4.20;99.90;;;;;;5034378;28;20226;-72
2022/03/10 03:51:28;;;;;;;35.80;17.80;;;4.10;99.90;;;;;;5035210;28;20215;-72
2022/03/10 03:53:53;;;;;;;33.77;17.50;;;4.10;99.90;;;;;;5053040;28;20291;-72
2022/03/10 03:56:19;;;;;;;32.67;17.23;;;4.10;99.90;;;;;;5053061;28;20670;-73
2022/03/10 03:58:45;;;;;;;32.57;17.00;;;4.10;99.90;;;;;;5052760;28;20182;-72
2022/03/10 04:01:10;;;;;;;29.50;16.00;;;4.10;99.90;;;;;;5035326;28;20219;-72
2022/03/10 04:03:36;;;;;;;33.87;16.33;;;4.10;99.90;;;;;;5034783;28;20218;-73
2022/03/10 04:06:02;;;;;;;38.27;17.70;;;4.10;99.90;;;;;;5053257;28;20260;-73
2022/03/10 04:08:28;;;;;;;30.73;16.73;;;4.10;99.90;;;;;;5051921;28;20229;-72
2022/03/10 04:10:53;;;;;;;35.93;17.47;;;4.10;99.90;;;;;;5035869;28;20170;-72
2022/03/10 04:13:21;;;;;;;34.43;16.37;;;4.10;99.90;;;;;;5053789;28;20285;-72
2022/03/10 04:15:49;;;;;;;35.13;16.90;;;4.00;99.90;;;;;;5061026;28;20688;-73
2022/03/10 04:18:15;;;;;;;30.10;16.17;;;4.00;99.90;;;;;;5051953;28;20209;-72
2022/03/10 04:20:41;;;;;;;31.73;16.37;;;4.00;99.90;;;;;;5052722;28;20222;-72
2022/03/10 04:23:06;;;;;;;32.30;17.33;;;4.00;99.90;;;;;;5035526;28;20591;-72
2022/03/10 04:25:32;;;;;;;38.03;19.10;;;4.00;99.90;;;;;;5052660;28;20218;-73
2022/03/10 04:27:57;;;;;;;38.80;19.57;;;4.10;99.90;;;;;;5051957;28;20272;-72
2022/03/10 04:30:23;;;;;;;34.00;17.50;;;4.00;99.90;;;;;;5034595;28;20210;-70
2022/03/10 04:32:49;;;;;;;39.77;19.80;;;4.00;99.90;;;;;;5035084;28;20206;-72
2022/03/10 04:35:17;;;;;;;42.03;19.87;;;4.00;99.90;;;;;;5053204;28;20270;-71
2022/03/10 04:37:44;;;;;;;36.63;18.80;;;4.00;99.90;;;;;;5052229;28;20645;-72
2022/03/10 04:40:11;;;;;;;41.77;20.00;;;4.10;99.90;;;;;;5054014;28;20241;-72
2022/03/10 04:42:40;;;;;;;40.37;20.10;;;4.00;99.90;;;;;;5036325;28;20661;-73
2022/03/10 04:45:06;;;;;;;37.00;18.40;;;4.00;99.90;;;;;;5062078;28;20204;-72
2022/03/10 04:47:33;;;;;;;43.07;20.73;;;3.90;99.90;;;;;;5051924;28;20261;-72
2022/03/10 04:49:59;;;;;;;37.63;20.10;;;3.90;99.90;;;;;;5034245;28;20226;-73
2022/03/10 04:52:26;;;;;;;46.97;21.03;;;4.00;99.90;;;;;;5052235;28;20434;-72
2022/03/10 04:54:51;;;;;;;39.00;20.33;;;4.00;99.90;;;;;;5052562;28;20214;-73
2022/03/10 04:57:17;;;;;;;43.53;19.50;;;4.00;99.90;;;;;;5034585;28;20322;-72
2022/03/10 04:59:42;;;;;;;38.67;19.70;;;3.90;99.90;;;;;;5050242;28;20299;-72
2022/03/10 05:02:08;;;;;;;37.37;19.03;;;4.00;99.90;;;;;;5034905;28;20194;-73
2022/03/10 05:04:33;;;;;;;38.53;19.77;;;3.90;99.90;;;;;;5051995;28;20328;-72
2022/03/10 05:06:58;;;;;;;36.50;21.03;;;3.90;99.90;;;;;;5052043;28;20707;-72
2022/03/10 05:09:24;;;;;;;43.10;19.57;;;3.90;99.90;;;;;;5051004;28;20206;-73
2022/03/10 05:11:49;;;;;;;35.73;20.33;;;3.90;99.90;;;;;;5034441;28;20234;-72
2022/03/10 05:14:15;;;;;;;39.83;21.63;;;3.90;99.90;;;;;;5061223;28;20242;-72
2022/03/10 05:16:40;;;;;;;41.00;21.00;;;3.80;99.90;;;;;;5052397;28;20219;-73
2022/03/10 05:19:06;;;;;;;38.47;20.83;;;3.80;99.90;;;;;;5057557;28;20286;-72
2022/03/10 05:21:31;;;;;;;42.10;22.80;;;3.80;99.90;;;;;;5053933;28;20641;-73
2022/03/10 05:23:57;;;;;;;46.13;22.43;;;3.80;99.90;;;;;;5052052;28;20211;-72
2022/03/10 05:26:22;;;;;;;39.00;22.30;;;3.80;99.90;;;;;;5051714;28;20212;-72
2022/03/10 05:28:48;;;;;;;45.53;22.43;;;3.70;99.90;;;;;;5033482;28;20651;-73
2022/03/10 05:31:13;;;;;;;40.73;22.07;;;3.70;99.90;;;;;;5051753;28;20770;-72
2022/03/10 05:33:39;;;;;;;38.93;21.97;;;3.70;99.90;;;;;;5033624;28;20233;-72
2022/03/10 05:36:05;;;;;;;36.50;21.43;;;3.60;99.90;;;;;;5060011;28;20211;-71
2022/03/10 05:38:30;;;;;;;43.43;20.90;;;3.50;99.90;;;;;;5050696;28;20733;-72
2022/03/10 05:40:56;;;;;;;34.97;19.23;;;3.50;99.90;;;;;;5052244;28;20744;-72
2022/03/10 05:43:21;;;;;;;35.80;19.93;;;3.50;99.90;;;;;;5051292;28;20204;-72
2022/03/10 05:45:47;;;;;;;35.47;18.93;;;3.50;99.90;;;;;;5057967;28;20199;-72
2022/03/10 05:48:12;;;;;;;34.20;19.30;;;3.50;99.90;;;;;;5073541;22;20601;-71
2022/03/10 05:50:38;;;;;;;37.90;18.30;;;3.50;99.90;;;;;;5042907;28;20600;-71
2022/03/10 05:53:03;;;;;;;37.77;19.67;;;3.50;99.90;;;;;;5033899;28;20179;-71
2022/03/10 05:55:29;;;;;;;38.87;20.07;;;3.50;99.90;;;;;;5032063;28;20202;-71
2022/03/10 05:57:56;;;;;;;36.47;20.03;;;3.50;99.90;;;;;;5038960;28;20208;-71
2022/03/10 06:00:23;;;;;;;40.63;20.27;;;3.40;99.90;;;;;;5038861;28;20284;-72
2022/03/10 06:02:49;;;;;;;39.47;20.97;;;3.50;99.90;;;;;;5042195;28;20223;-72
2022/03/10 06:05:15;;;;;;;43.60;20.77;;;3.50;99.90;;;;;;5051518;28;20548;-71
2022/03/10 06:07:40;;;;;;;39.77;21.60;;;3.50;99.90;;;;;;5050525;28;20277;-72
2022/03/10 06:10:06;;;;;;;41.87;21.53;;;3.60;99.90;;;;;;5032574;28;20192;-72
2022/03/10 06:12:32;;;;;;;40.43;21.90;;;3.70;99.90;;;;;;5032696;28;20199;-72
2022/03/10 06:15:00;;;;;;;38.97;22.53;;;3.90;99.90;;;;;;5050989;28;20204;-71
2022/03/10 06:17:26;;;;;;;40.30;20.83;;;6.00;99.90;;;;;;5050596;28;20666;-73
2022/03/10 06:19:51;;;;;;;38.40;21.63;;;8.00;99.90;;;;;;5032962;28;20234;-72
2022/03/10 06:22:22;;;;;;;37.53;21.67;;;8.80;99.90;;;;;;5050980;28;20203;-72
2022/03/10 06:24:48;;;;;;;35.23;19.93;;;9.10;99.90;;;;;;5050821;28;20260;-72
2022/03/10 06:27:15;;;;;;;33.83;19.33;;;10.10;99.90;;;;;;5050970;28;20199;-72
2022/03/10 06:29:41;;;;;;;37.33;19.63;;;10.50;99.90;;;;;;5049952;28;20294;-71
2022/03/10 06:32:07;;;;;;;34.43;19.77;;;11.10;99.90;;;;;;5050970;28;20255;-72
2022/03/10 06:34:33;;;;;;;32.63;18.83;;;11.30;99.90;;;;;;5032207;28;20625;-73
2022/03/10 06:36:58;;;;;;;31.33;18.23;;;11.70;99.90;;;;;;5032732;28;20199;-72
2022/03/10 06:39:24;;;;;;;37.00;19.43;;;11.60;99.90;;;;;;5049685;28;20227;-72
2022/03/10 06:41:49;;;;;;;36.13;18.70;;;11.10;99.90;;;;;;5050448;28;20207;-72
2022/03/10 06:44:15;;;;;;;33.97;18.30;;;11.40;99.90;;;;;;5051059;28;20632;-71
2022/03/10 06:46:40;;;;;;;34.80;17.97;;;12.20;99.90;;;;;;5050418;28;20226;-72
2022/03/10 06:49:06;;;;;;;31.20;18.37;;;12.60;99.90;;;;;;5049889;28;20254;-71
2022/03/10 06:51:32;;;;;;;30.57;17.87;;;12.20;99.90;;;;;;5050544;28;20341;-72
2022/03/10 06:53:58;;;;;;;29.00;17.23;;;12.00;99.90;;;;;;5050495;28;20226;-72
2022/03/10 06:56:23;;;;;;;30.57;17.20;;;12.50;99.90;;;;;;5049385;28;20180;-70
2022/03/10 06:58:49;;;;;;;30.87;18.07;;;12.60;99.90;;;;;;5023512;28;20199;-71
2022/03/10 07:01:14;;;;;;;30.27;17.47;;;12.40;99.90;;;;;;5026559;28;20222;-71
2022/03/10 07:03:40;;;;;;;32.77;17.83;;;12.50;99.90;;;;;;5043955;28;20254;-71
2022/03/10 07:06:06;;;;;;;32.37;18.20;;;12.60;99.90;;;;;;5042996;28;20200;-73
2022/03/10 07:08:31;;;;;;;32.63;18.63;;;13.30;99.90;;;;;;5025613;28;20207;-74
2022/03/10 07:10:57;;;;;;;26.50;17.87;;;13.00;99.90;;;;;;5045295;28;20172;-72
2022/03/10 07:13:22;;;;;;;38.20;20.27;;;13.10;99.90;;;;;;5041646;28;20216;-72
2022/03/10 07:15:48;;;;;;;30.53;18.73;;;12.30;99.90;;;;;;5044286;28;20222;-72
2022/03/10 07:18:13;;;;;;;30.40;18.37;;;13.00;99.90;;;;;;5028865;28;20214;-72
2022/03/10 07:20:39;;;;;;;27.80;16.97;;;13.40;99.90;;;;;;5043022;28;20250;-73
2022/03/10 07:23:05;;;;;;;32.77;18.90;;;13.50;99.90;;;;;;5048272;28;20278;-73
2022/03/10 07:25:31;;;;;;;36.93;20.87;;;13.40;99.90;;;;;;5045499;28;20200;-72
2022/03/10 07:27:56;;;;;;;32.53;19.15;;;13.90;99.90;;;;;;5034317;28;20214;-73
2022/03/10 07:30:22;;;;;;;33.67;20.07;;;15.00;99.90;;;;;;5045542;28;20740;-73
2022/03/10 07:32:47;;;;;;;34.73;18.53;;;13.00;99.90;;;;;;5047768;28;20223;-72
2022/03/10 07:35:13;;;;;;;32.30;18.93;;;13.10;99.90;;;;;;5046418;28;20629;-73
2022/03/10 07:37:38;;;;;;;33.50;19.23;;;13.90;99.90;;;;;;5045682;28;20335;-71
2022/03/10 07:40:05;;;;;;;30.73;18.37;;;13.80;99.90;;;;;;5046665;28;20212;-71
2022/03/10 07:42:30;;;;;;;32.35;18.90;;;14.00;99.90;;;;;;5044266;28;20208;-71
2022/03/10 07:44:56;;;;;;;33.00;19.50;;;13.50;99.90;;;;;;5028234;28;20200;-72
2022/03/10 07:47:21;;;;;;;36.80;20.37;;;13.20;99.90;;;;;;5029857;28;20186;-72
2022/03/10 07:49:47;;;;;;;31.27;18.70;;;13.40;99.90;;;;;;5044812;28;20621;-72
2022/03/10 07:52:12;;;;;;;38.27;19.37;;;12.40;99.90;;;;;;5049103;28;20232;-72
2022/03/10 07:54:38;;;;;;;33.53;18.37;;;11.10;99.90;;;;;;5046237;28;20689;-72
2022/03/10 07:57:04;;;;;;;34.47;18.03;;;11.10;99.90;;;;;;5047794;28;20337;-71
2022/03/10 07:59:29;;;;;;;33.83;18.43;;;10.70;99.90;;;;;;5043893;28;20192;-72
2022/03/10 08:01:55;;;;;;;31.97;18.33;;;11.50;99.90;;;;;;5030438;28;20263;-72
2022/03/10 08:04:21;;;;;;;39.37;18.33;;;11.80;99.90;;;;;;5048104;28;20203;-72
2022/03/10 08:06:47;;;;;;;33.10;17.40;;;12.00;99.90;;;;;;5033400;28;20681;-72
2022/03/10 08:09:12;;;;;;;33.73;17.77;;;12.20;99.90;;;;;;5037289;28;20231;-73
2022/03/10 08:11:41;;;;;;;30.47;17.33;;;11.80;99.90;;;;;;5053030;28;20588;-73
2022/03/10 08:14:07;;;;;;;32.53;18.03;;;12.90;99.90;;;;;;5035656;28;20172;-73
2022/03/10 08:16:33;;;;;;;32.43;17.40;;;12.10;99.90;;;;;;5053181;28;20703;-73
2022/03/10 08:18:59;;;;;;;31.90;17.57;;;11.10;99.90;;;;;;5019422;28;20212;-73
2022/03/10 08:21:25;;;;;;;36.73;18.77;;;11.80;99.90;;;;;;5033298;28;20262;-73
2022/03/10 08:23:50;;;;;;;33.97;18.87;;;11.30;99.90;;;;;;5015300;28;20222;-74
2022/03/10 08:26:17;;;;;;;33.40;18.40;;;11.20;99.90;;;;;;5033701;28;20188;-73
2022/03/10 08:28:43;;;;;;;31.90;18.60;;;11.00;99.90;;;;;;5014496;28;20208;-73
2022/03/10 08:31:10;;;;;;;35.17;18.33;;;11.00;99.90;;;;;;5033121;28;20215;-74
2022/03/10 08:33:36;;;;;;;32.57;17.67;;;11.60;99.90;;;;;;5040300;28;20222;-73
2022/03/10 08:36:03;;;;;;;30.93;17.83;;;11.80;99.90;;;;;;5047744;28;20211;-72
2022/03/10 08:38:30;;;;;;;32.43;18.07;;;12.10;99.90;;;;;;5048447;28;20726;-73
2022/03/10 08:40:55;;;;;;;31.80;18.67;;;12.00;99.90;;;;;;5026979;28;20196;-72
2022/03/10 08:43:23;;;;;;;28.47;16.40;;;12.40;99.90;;;;;;5048763;28;20208;-73
2022/03/10 08:45:49;;;;;;;29.43;16.80;;;11.40;99.90;;;;;;5052853;28;20196;-74
2022/03/10 08:48:14;;;;;;;29.73;16.70;;;10.70;99.90;;;;;;5051828;28;20219;-73
2022/03/10 08:50:41;;;;;;;32.90;17.57;;;10.70;99.90;;;;;;5034643;28;20211;-74
2022/03/10 08:53:07;;;;;;;33.60;18.17;;;10.70;99.90;;;;;;5034869;28;20199;-73
2022/03/10 08:55:33;;;;;;;29.77;18.03;;;10.80;99.90;;;;;;5034414;28;20238;-72
2022/03/10 08:58:00;;;;;;;39.33;18.37;;;10.50;99.90;;;;;;5033457;28;20233;-73
2022/03/10 09:00:25;;;;;;;30.37;18.23;;;10.70;99.90;;;;;;5033735;28;20241;-73
2022/03/10 09:02:51;;;;;;;28.23;16.50;;;10.70;99.90;;;;;;5051967;28;20200;-73
2022/03/10 09:05:17;;;;;;;35.87;17.70;;;11.20;99.90;;;;;;5052310;28;20176;-73
2022/03/10 09:07:43;;;;;;;34.70;18.97;;;10.80;99.90;;;;;;5029938;28;20200;-73
2022/03/10 09:10:10;;;;;;;33.70;18.77;;;11.00;99.90;;;;;;5034035;28;20200;-73
2022/03/10 09:12:35;;;;;;;35.73;19.83;;;10.00;99.90;;;;;;5036973;28;20208;-73
2022/03/10 09:15:01;;;;;;;29.43;18.10;;;9.90;99.90;;;;;;5036929;28;20208;-72
2022/03/10 09:17:26;;;;;;;35.43;18.87;;;10.20;99.90;;;;;;5048400;28;20184;-74
2022/03/10 09:19:53;;;;;;;35.17;19.23;;;10.40;99.90;;;;;;5018547;28;20187;-72
2022/03/10 09:22:20;;;;;;;35.43;19.97;;;10.30;99.90;;;;;;5025483;28;20208;-71
2022/03/10 09:24:46;;;;;;;30.73;18.63;;;10.50;99.90;;;;;;5037077;28;20555;-71
2022/03/10 09:27:11;;;;;;;34.23;18.10;;;10.50;99.90;;;;;;5032991;28;20249;-71
2022/03/10 09:29:37;;;;;;;36.43;19.47;;;10.20;99.90;;;;;;5012526;28;20216;-71
2022/03/10 09:32:03;;;;;;;35.07;18.37;;;10.40;99.90;;;;;;5014010;28;20172;-70
2022/03/10 09:34:29;;;;;;;38.63;20.23;;;10.30;99.90;;;;;;5048027;28;20200;-72
2022/03/10 09:36:54;;;;;;;33.20;19.20;;;10.20;99.90;;;;;;5050628;28;20230;-71
2022/03/10 09:39:20;;;;;;;30.37;18.33;;;10.00;99.90;;;;;;5049890;28;20207;-70
2022/03/10 09:41:46;;;;;;;33.03;18.97;;;9.80;99.90;;;;;;5029704;28;20875;-70
2022/03/10 09:44:18;;;;;;;33.83;18.60;;;9.80;99.90;;;;;;5030853;28;20697;-74
2022/03/10 09:46:44;;;;;;;35.87;18.27;;;9.90;99.90;;;;;;5031286;28;20628;-71
2022/03/10 09:49:10;;;;;;;31.80;17.60;;;9.90;99.90;;;;;;5030030;28;20312;-72
2022/03/10 09:51:36;;;;;;;31.53;18.63;;;10.10;99.90;;;;;;5032912;28;20228;-70
2022/03/10 09:54:01;;;;;;;33.53;18.53;;;10.00;99.90;;;;;;5050406;28;20223;-71
2022/03/10 09:56:27;;;;;;;34.77;18.93;;;10.90;99.90;;;;;;5033233;28;20172;-71
2022/03/10 09:58:53;;;;;;;32.30;18.27;;;10.50;99.90;;;;;;5050375;28;20291;-71
2022/03/10 10:01:18;;;;;;;33.87;18.07;;;10.40;99.90;;;;;;5050831;28;20302;-71
2022/03/10 10:03:44;;;;;;;30.20;17.50;;;10.90;99.90;;;;;;5029249;28;20685;-72
2022/03/10 10:06:09;;;;;;;32.80;18.17;;;11.70;99.90;;;;;;5030524;28;20254;-71
2022/03/10 10:08:38;;;;;;;28.93;17.17;;;11.90;99.90;;;;;;5029720;28;20254;-73
2022/03/10 10:11:04;;;;;;;29.60;16.13;;;12.00;99.90;;;;;;5037741;28;20183;-72
2022/03/10 10:13:37;;;;;;;31.23;15.60;;;10.80;99.90;;;;;;5027214;28;20208;-74
2022/03/10 10:16:04;;;;;;;31.30;17.90;;;10.20;99.90;;;;;;5044819;28;20207;-74
2022/03/10 10:18:31;;;;;;;29.27;17.13;;;10.10;99.90;;;;;;5031494;28;20307;-72
2022/03/10 10:20:57;;;;;;;30.10;16.10;;;10.20;99.90;;;;;;5030685;28;20254;-73
2022/03/10 10:23:27;;;;;;;28.40;16.83;;;9.90;99.90;;;;;;5030369;28;20204;-72
2022/03/10 10:26:12;;;;;;;36.50;17.57;;;9.90;99.90;;;;;;5025844;28;20174;-73
2022/03/10 10:28:42;;;;;;;33.20;16.37;;;10.20;99.90;;;;;;5049307;28;20286;-74
2022/03/10 10:31:11;;;;;;;30.80;17.23;;;10.10;99.90;;;;;;5032660;28;20211;-73
2022/03/10 10:33:38;;;;;;;30.33;16.77;;;10.40;99.90;;;;;;5047537;28;20619;-73
2022/03/10 10:36:17;;;;;;;26.93;16.60;;;10.50;99.90;;;;;;5012328;28;20693;-73
2022/03/10 10:38:48;;;;;;;30.10;17.47;;;10.60;99.90;;;;;;5030941;28;20215;-75
2022/03/10 10:41:28;;;;;;;29.53;17.43;;;10.50;99.90;;;;;;5050731;28;20198;-73
2022/03/10 10:43:54;;;;;;;28.50;17.53;;;10.20;99.90;;;;;;5032450;28;20212;-72
2022/03/10 10:46:21;;;;;;;31.00;17.20;;;10.20;99.90;;;;;;5050097;28;20231;-73
2022/03/10 10:48:47;;;;;;;31.93;17.37;;;10.30;99.90;;;;;;5049261;28;20243;-73
2022/03/10 10:51:13;;;;;;;32.00;16.27;;;10.00;99.90;;;;;;5032590;28;20226;-73
2022/03/10 10:53:40;;;;;;;30.33;17.37;;;10.10;99.90;;;;;;5047648;28;20622;-74
2022/03/10 10:56:06;;;;;;;26.13;15.60;;;10.20;99.90;;;;;;5045478;28;20545;-73
2022/03/10 10:58:32;;;;;;;26.57;15.47;;;10.40;99.90;;;;;;5035302;28;20241;-73
2022/03/10 11:00:57;;;;;;;26.67;15.33;;;10.20;99.90;;;;;;5058148;28;20226;-74
2022/03/10 11:03:36;;;;;;;25.17;15.30;;;10.10;99.90;;;;;;5053478;28;20214;-74
2022/03/10 11:06:02;;;;;;;29.30;16.13;;;10.20;99.90;;;;;;5039235;28;20200;-74
2022/03/10 11:08:28;;;;;;;28.83;16.50;;;9.80;99.90;;;;;;5034968;28;20196;-72
2022/03/10 11:10:54;;;;;;;30.10;16.73;;;9.80;99.90;;;;;;5034393;28;20185;-73
2022/03/10 11:13:21;;;;;;;22.90;14.83;;;9.60;99.90;;;;;;5034218;28;20311;-71
2022/03/10 11:15:49;;;;;;;27.63;16.17;;;9.50;99.90;;;;;;5033956;28;20315;-72
2022/03/10 11:18:15;;;;;;;31.37;15.23;;;9.30;99.90;;;;;;5033085;28;20204;-72
2022/03/10 11:20:47;;;;;;;28.10;15.13;;;9.20;99.90;;;;;;5033471;28;20228;-73
2022/03/10 11:23:39;;;;;;;27.83;16.20;;;9.40;99.90;;;;;;5016154;28;20177;-73
2022/03/10 11:26:12;;;;;;;28.13;17.07;;;9.40;99.90;;;;;;5034459;28;20716;-75
2022/03/10 11:28:43;;;;;;;25.13;15.73;;;9.30;99.90;;;;;;5017619;28;20212;-80
2022/03/10 11:31:09;;;;;;;22.50;14.23;;;9.50;99.90;;;;;;5023209;28;20204;-76
2022/03/10 11:33:38;;;;;;;25.13;14.27;;;9.00;99.90;;;;;;5040957;28;20211;-75
2022/03/10 11:36:23;;;;;;;24.43;13.03;;;9.10;99.90;;;;;;5015882;28;20556;-72
2022/03/10 11:39:12;;;;;;;21.33;13.00;;;9.00;99.90;;;;;;5032898;28;20681;-72
2022/03/10 11:41:46;;;;;;;20.87;12.40;;;8.90;99.90;;;;;;5033506;28;20212;-72
2022/03/10 11:44:12;;;;;;;24.00;12.93;;;8.80;99.90;;;;;;5015974;28;20172;-71
2022/03/10 11:46:58;;;;;;;21.47;12.17;;;8.70;99.90;;;;;;5034500;28;20211;-71
2022/03/10 11:49:27;;;;;;;19.50;12.63;;;8.80;99.90;;;;;;5052182;28;20280;-74
2022/03/10 11:51:57;;;;;;;21.93;12.10;;;8.90;99.90;;;;;;5053403;28;20203;-74
2022/03/10 11:54:30;;;;;;;21.57;13.10;;;9.00;99.90;;;;;;5053122;28;20200;-73
2022/03/10 11:56:59;;;;;;;19.30;13.23;;;8.90;99.90;;;;;;5048639;28;20723;-75
2022/03/10 11:59:47;;;;;;;23.70;12.80;;;8.70;99.90;;;;;;5030998;28;20198;-74
2022/03/10 12:02:38;;;;;;;19.00;12.53;;;9.10;99.90;;;;;;5049876;28;20172;-73
2022/03/10 12:05:05;;;;;;;16.47;11.63;;;9.10;99.90;;;;;;5039628;28;20291;-73
2022/03/10 12:07:31;;;;;;;21.10;13.10;;;9.40;99.90;;;;;;5027918;28;20207;-74
2022/03/10 12:10:08;;;;;;;29.70;15.00;;;9.40;99.90;;;;;;5025527;28;20223;-73
2022/03/10 12:15:29;;;;;;;17.97;10.87;;;9.90;99.90;;;;;;5049917;28;20558;-76
2022/03/10 12:17:55;;;;;;;20.70;12.50;;;9.50;99.90;;;;;;5034580;28;20261;-74
2022/03/10 12:20:38;;;;;;;16.40;11.07;;;9.40;99.90;;;;;;5050581;28;20632;-73
2022/03/10 12:23:06;;;;;;;17.50;11.40;;;9.40;99.90;;;;;;5053259;28;20669;-72
2022/03/10 12:25:39;;;;;;;22.73;12.33;;;9.30;99.90;;;;;;5052418;28;20200;-73
2022/03/10 12:28:05;;;;;;;16.47;12.00;;;9.30;99.90;;;;;;5051582;28;20718;-74
2022/03/10 12:30:30;;;;;;;17.00;11.70;;;9.40;99.90;;;;;;5032758;28;20294;-73
2022/03/10 12:32:58;;;;;;;20.17;12.27;;;9.30;99.90;;;;;;5048765;28;20278;-73
2022/03/10 12:35:30;;;;;;;19.30;11.30;;;9.00;99.90;;;;;;5051984;28;20641;-73
2022/03/10 12:37:56;;;;;;;20.33;11.77;;;9.00;99.90;;;;;;5052378;28;20199;-71
2022/03/10 12:40:24;;;;;;;43.63;15.30;;;8.90;99.90;;;;;;5051609;28;20224;-72